sensor_id;sensor_type;location;lat;lon;timestamp;P1;durP1;ratioP1;P2;durP2;ratioP2
10299;SDS011;5195;48.562;9.192;2023-03-14T00:00:21;1.40;;;0.60;;
10299;SDS011;5195;48.562;9.192;2023-03-14T00:02:52;0.30;;;0.30;;
10299;SDS011;5195;48.562;9.192;2023-03-14T00:05:17;0.43;;;0.43;;
10299;SDS011;5195;48.562;9.192;2023-03-14T00:07:42;1.52;;;0.70;;
10299;SDS011;5195;48.562;9.192;2023-03-14T00:10:09;1.33;;;0.67;;
10299;SDS011;5195;48.562;9.192;2023-03-14T00:12:34;0.37;;;0.37;;
10299;SDS011;5195;48.562;9.192;2023-03-14T00:14:59;0.57;;;0.50;;
10299;SDS011;5195;48.562;9.192;2023-03-14T00:17:31;0.60;;;0.60;;
10299;SDS011;5195;48.562;9.192;2023-03-14T00:19:57;0.45;;;0.45;;
10299;SDS011;5195;48.562;9.192;2023-03-14T00:22:23;0.40;;;0.40;;
10299;SDS011;5195;48.562;9.192;2023-03-14T00:24:50;0.70;;;0.40;;
10299;SDS011;5195;48.562;9.192;2023-03-14T00:27:15;0.60;;;0.50;;
10299;SDS011;5195;48.562;9.192;2023-03-14T00:29:42;0.60;;;0.60;;
10299;SDS011;5195;48.562;9.192;2023-03-14T00:32:06;1.23;;;0.50;;
10299;SDS011;5195;48.562;9.192;2023-03-14T00:34:33;0.50;;;0.50;;
10299;SDS011;5195;48.562;9.192;2023-03-14T00:36:58;0.43;;;0.30;;
10299;SDS011;5195;48.562;9.192;2023-03-14T00:39:24;1.40;;;0.40;;
10299;SDS011;5195;48.562;9.192;2023-03-14T00:41:49;0.50;;;0.40;;
10299;SDS011;5195;48.562;9.192;2023-03-14T00:44:15;0.40;;;0.40;;
10299;SDS011;5195;48.562;9.192;2023-03-14T00:46:41;0.90;;;0.30;;
10299;SDS011;5195;48.562;9.192;2023-03-14T00:49:06;0.30;;;0.30;;
10299;SDS011;5195;48.562;9.192;2023-03-14T00:51:32;0.83;;;0.30;;
10299;SDS011;5195;48.562;9.192;2023-03-14T00:53:58;0.30;;;0.30;;
10299;SDS011;5195;48.562;9.192;2023-03-14T00:56:23;0.50;;;0.50;;
10299;SDS011;5195;48.562;9.192;2023-03-14T00:58:48;0.50;;;0.30;;
10299;SDS011;5195;48.562;9.192;2023-03-14T01:01:15;0.30;;;0.30;;
10299;SDS011;5195;48.562;9.192;2023-03-14T01:03:41;0.47;;;0.40;;
10299;SDS011;5195;48.562;9.192;2023-03-14T01:06:14;0.20;;;0.20;;
10299;SDS011;5195;48.562;9.192;2023-03-14T01:08:39;0.60;;;0.30;;
10299;SDS011;5195;48.562;9.192;2023-03-14T01:11:08;0.60;;;0.30;;
10299;SDS011;5195;48.562;9.192;2023-03-14T01:13:33;0.50;;;0.30;;
10299;SDS011;5195;48.562;9.192;2023-03-14T01:16:02;0.30;;;0.30;;
10299;SDS011;5195;48.562;9.192;2023-03-14T01:18:27;0.30;;;0.30;;
10299;SDS011;5195;48.562;9.192;2023-03-14T01:20:53;1.70;;;0.20;;
10299;SDS011;5195;48.562;9.192;2023-03-14T01:23:18;0.40;;;0.40;;
10299;SDS011;5195;48.562;9.192;2023-03-14T01:25:44;0.20;;;0.20;;
10299;SDS011;5195;48.562;9.192;2023-03-14T01:28:10;0.25;;;0.25;;
10299;SDS011;5195;48.562;9.192;2023-03-14T01:30:36;0.37;;;0.30;;
10299;SDS011;5195;48.562;9.192;2023-03-14T01:33:02;0.37;;;0.30;;
10299;SDS011;5195;48.562;9.192;2023-03-14T01:35:27;0.50;;;0.40;;
10299;SDS011;5195;48.562;9.192;2023-03-14T01:37:53;0.30;;;0.30;;
10299;SDS011;5195;48.562;9.192;2023-03-14T01:40:19;0.40;;;0.30;;
10299;SDS011;5195;48.562;9.192;2023-03-14T01:42:54;0.40;;;0.40;;
10299;SDS011;5195;48.562;9.192;2023-03-14T01:48:34;0.20;;;0.20;;
10299;SDS011;5195;48.562;9.192;2023-03-14T01:50:58;0.70;;;0.30;;
10299;SDS011;5195;48.562;9.192;2023-03-14T01:53:24;0.20;;;0.20;;
10299;SDS011;5195;48.562;9.192;2023-03-14T01:55:50;0.33;;;0.33;;
10299;SDS011;5195;48.562;9.192;2023-03-14T01:58:15;0.20;;;0.20;;
10299;SDS011;5195;48.562;9.192;2023-03-14T02:00:41;0.60;;;0.30;;
10299;SDS011;5195;48.562;9.192;2023-03-14T02:03:09;0.85;;;0.20;;
10299;SDS011;5195;48.562;9.192;2023-03-14T02:05:33;0.45;;;0.32;;
10299;SDS011;5195;48.562;9.192;2023-03-14T02:07:59;0.37;;;0.20;;
10299;SDS011;5195;48.562;9.192;2023-03-14T02:10:24;0.65;;;0.30;;
10299;SDS011;5195;48.562;9.192;2023-03-14T02:12:49;0.63;;;0.30;;
10299;SDS011;5195;48.562;9.192;2023-03-14T02:15:14;0.60;;;0.20;;
10299;SDS011;5195;48.562;9.192;2023-03-14T02:17:40;1.10;;;0.30;;
10299;SDS011;5195;48.562;9.192;2023-03-14T02:22:52;0.20;;;0.20;;
10299;SDS011;5195;48.562;9.192;2023-03-14T02:28:06;0.10;;;0.10;;
10299;SDS011;5195;48.562;9.192;2023-03-14T02:30:33;0.30;;;0.30;;
10299;SDS011;5195;48.562;9.192;2023-03-14T02:33:05;0.20;;;0.20;;
10299;SDS011;5195;48.562;9.192;2023-03-14T02:35:31;1.10;;;0.30;;
10299;SDS011;5195;48.562;9.192;2023-03-14T02:38:13;0.90;;;0.20;;
10299;SDS011;5195;48.562;9.192;2023-03-14T02:40:55;0.67;;;0.30;;
10299;SDS011;5195;48.562;9.192;2023-03-14T02:43:20;0.20;;;0.20;;
10299;SDS011;5195;48.562;9.192;2023-03-14T02:45:47;0.85;;;0.35;;
10299;SDS011;5195;48.562;9.192;2023-03-14T02:48:20;0.30;;;0.30;;
10299;SDS011;5195;48.562;9.192;2023-03-14T02:50:45;1.37;;;0.20;;
10299;SDS011;5195;48.562;9.192;2023-03-14T02:53:10;1.30;;;0.30;;
10299;SDS011;5195;48.562;9.192;2023-03-14T02:55:36;1.00;;;0.47;;
10299;SDS011;5195;48.562;9.192;2023-03-14T02:58:02;2.17;;;0.30;;
10299;SDS011;5195;48.562;9.192;2023-03-14T03:00:27;0.30;;;0.30;;
10299;SDS011;5195;48.562;9.192;2023-03-14T03:02:54;0.50;;;0.47;;
10299;SDS011;5195;48.562;9.192;2023-03-14T03:05:19;0.90;;;0.40;;
10299;SDS011;5195;48.562;9.192;2023-03-14T03:07:45;0.47;;;0.30;;
10299;SDS011;5195;48.562;9.192;2023-03-14T03:10:10;0.53;;;0.40;;
10299;SDS011;5195;48.562;9.192;2023-03-14T03:12:36;1.23;;;0.40;;
10299;SDS011;5195;48.562;9.192;2023-03-14T03:15:02;0.80;;;0.40;;
10299;SDS011;5195;48.562;9.192;2023-03-14T03:17:27;1.17;;;0.50;;
10299;SDS011;5195;48.562;9.192;2023-03-14T03:19:53;0.37;;;0.37;;
10299;SDS011;5195;48.562;9.192;2023-03-14T03:22:18;0.47;;;0.30;;
10299;SDS011;5195;48.562;9.192;2023-03-14T03:24:45;0.80;;;0.80;;
10299;SDS011;5195;48.562;9.192;2023-03-14T03:27:10;0.60;;;0.35;;
10299;SDS011;5195;48.562;9.192;2023-03-14T03:29:36;1.50;;;0.50;;
10299;SDS011;5195;48.562;9.192;2023-03-14T03:32:02;0.80;;;0.40;;
10299;SDS011;5195;48.562;9.192;2023-03-14T03:34:29;0.40;;;0.40;;
10299;SDS011;5195;48.562;9.192;2023-03-14T03:36:58;0.87;;;0.30;;
10299;SDS011;5195;48.562;9.192;2023-03-14T03:39:23;1.33;;;0.53;;
10299;SDS011;5195;48.562;9.192;2023-03-14T03:41:48;1.35;;;0.40;;
10299;SDS011;5195;48.562;9.192;2023-03-14T03:44:14;0.87;;;0.60;;
10299;SDS011;5195;48.562;9.192;2023-03-14T03:46:39;1.03;;;0.40;;
10299;SDS011;5195;48.562;9.192;2023-03-14T03:49:06;1.60;;;0.50;;
10299;SDS011;5195;48.562;9.192;2023-03-14T03:51:31;0.70;;;0.60;;
10299;SDS011;5195;48.562;9.192;2023-03-14T03:53:57;0.75;;;0.47;;
10299;SDS011;5195;48.562;9.192;2023-03-14T03:56:22;1.37;;;0.40;;
10299;SDS011;5195;48.562;9.192;2023-03-14T03:58:48;1.17;;;0.60;;
10299;SDS011;5195;48.562;9.192;2023-03-14T04:01:14;0.30;;;0.30;;
10299;SDS011;5195;48.562;9.192;2023-03-14T04:03:39;0.30;;;0.30;;
10299;SDS011;5195;48.562;9.192;2023-03-14T04:06:06;0.47;;;0.35;;
10299;SDS011;5195;48.562;9.192;2023-03-14T04:08:30;1.17;;;0.63;;
10299;SDS011;5195;48.562;9.192;2023-03-14T04:10:56;1.42;;;0.50;;
10299;SDS011;5195;48.562;9.192;2023-03-14T04:13:22;0.93;;;0.40;;
10299;SDS011;5195;48.562;9.192;2023-03-14T04:15:48;1.83;;;0.60;;
10299;SDS011;5195;48.562;9.192;2023-03-14T04:18:14;1.50;;;0.60;;
10299;SDS011;5195;48.562;9.192;2023-03-14T04:20:39;0.40;;;0.40;;
10299;SDS011;5195;48.562;9.192;2023-03-14T04:23:05;1.67;;;0.50;;
10299;SDS011;5195;48.562;9.192;2023-03-14T04:25:32;1.27;;;0.50;;
10299;SDS011;5195;48.562;9.192;2023-03-14T04:27:57;1.23;;;0.53;;
10299;SDS011;5195;48.562;9.192;2023-03-14T04:30:23;2.30;;;0.70;;
10299;SDS011;5195;48.562;9.192;2023-03-14T04:32:49;2.17;;;0.83;;
10299;SDS011;5195;48.562;9.192;2023-03-14T04:35:15;0.90;;;0.77;;
10299;SDS011;5195;48.562;9.192;2023-03-14T04:37:40;1.48;;;0.60;;
10299;SDS011;5195;48.562;9.192;2023-03-14T04:40:07;1.70;;;0.70;;
10299;SDS011;5195;48.562;9.192;2023-03-14T04:42:33;1.48;;;0.85;;
10299;SDS011;5195;48.562;9.192;2023-03-14T04:44:59;1.08;;;0.50;;
10299;SDS011;5195;48.562;9.192;2023-03-14T04:47:24;1.37;;;0.80;;
10299;SDS011;5195;48.562;9.192;2023-03-14T04:49:50;1.98;;;0.80;;
10299;SDS011;5195;48.562;9.192;2023-03-14T04:52:16;1.23;;;0.60;;
10299;SDS011;5195;48.562;9.192;2023-03-14T04:54:41;1.17;;;0.60;;
10299;SDS011;5195;48.562;9.192;2023-03-14T04:57:07;1.52;;;0.65;;
10299;SDS011;5195;48.562;9.192;2023-03-14T04:59:33;1.27;;;0.60;;
10299;SDS011;5195;48.562;9.192;2023-03-14T05:01:59;0.50;;;0.27;;
10299;SDS011;5195;48.562;9.192;2023-03-14T05:04:24;0.93;;;0.50;;
10299;SDS011;5195;48.562;9.192;2023-03-14T05:06:50;0.83;;;0.50;;
10299;SDS011;5195;48.562;9.192;2023-03-14T05:09:15;1.12;;;0.73;;
10299;SDS011;5195;48.562;9.192;2023-03-14T05:11:41;1.10;;;0.50;;
10299;SDS011;5195;48.562;9.192;2023-03-14T05:14:07;1.50;;;0.50;;
10299;SDS011;5195;48.562;9.192;2023-03-14T05:16:33;1.70;;;0.70;;
10299;SDS011;5195;48.562;9.192;2023-03-14T05:18:58;1.87;;;0.83;;
10299;SDS011;5195;48.562;9.192;2023-03-14T05:21:24;1.93;;;0.90;;
10299;SDS011;5195;48.562;9.192;2023-03-14T05:23:50;0.80;;;0.53;;
10299;SDS011;5195;48.562;9.192;2023-03-14T05:26:16;0.70;;;0.50;;
10299;SDS011;5195;48.562;9.192;2023-03-14T05:28:41;1.77;;;0.80;;
10299;SDS011;5195;48.562;9.192;2023-03-14T05:31:08;2.33;;;0.90;;
10299;SDS011;5195;48.562;9.192;2023-03-14T05:33:34;2.12;;;0.90;;
10299;SDS011;5195;48.562;9.192;2023-03-14T05:36:00;1.87;;;0.70;;
10299;SDS011;5195;48.562;9.192;2023-03-14T05:38:25;1.30;;;0.77;;
10299;SDS011;5195;48.562;9.192;2023-03-14T05:40:53;0.70;;;0.53;;
10299;SDS011;5195;48.562;9.192;2023-03-14T05:43:19;0.90;;;0.90;;
10299;SDS011;5195;48.562;9.192;2023-03-14T05:45:44;1.90;;;0.77;;
10299;SDS011;5195;48.562;9.192;2023-03-14T05:48:11;1.65;;;0.60;;
10299;SDS011;5195;48.562;9.192;2023-03-14T05:50:36;2.87;;;0.90;;
10299;SDS011;5195;48.562;9.192;2023-03-14T05:53:03;1.77;;;0.77;;
10299;SDS011;5195;48.562;9.192;2023-03-14T05:55:30;1.43;;;0.40;;
10299;SDS011;5195;48.562;9.192;2023-03-14T05:57:55;1.67;;;0.70;;
10299;SDS011;5195;48.562;9.192;2023-03-14T06:00:21;1.77;;;1.00;;
10299;SDS011;5195;48.562;9.192;2023-03-14T06:02:47;1.13;;;0.60;;
10299;SDS011;5195;48.562;9.192;2023-03-14T06:05:13;1.57;;;0.83;;
10299;SDS011;5195;48.562;9.192;2023-03-14T06:07:39;0.70;;;0.60;;
10299;SDS011;5195;48.562;9.192;2023-03-14T06:10:05;0.73;;;0.40;;
10299;SDS011;5195;48.562;9.192;2023-03-14T06:12:31;1.17;;;0.60;;
10299;SDS011;5195;48.562;9.192;2023-03-14T06:14:56;0.53;;;0.50;;
10299;SDS011;5195;48.562;9.192;2023-03-14T06:17:22;2.20;;;0.70;;
10299;SDS011;5195;48.562;9.192;2023-03-14T06:19:47;2.80;;;0.80;;
10299;SDS011;5195;48.562;9.192;2023-03-14T06:22:13;0.50;;;0.50;;
10299;SDS011;5195;48.562;9.192;2023-03-14T06:24:39;1.23;;;0.60;;
10299;SDS011;5195;48.562;9.192;2023-03-14T06:27:05;1.13;;;0.67;;
10299;SDS011;5195;48.562;9.192;2023-03-14T06:29:30;0.93;;;0.50;;
10299;SDS011;5195;48.562;9.192;2023-03-14T06:31:56;1.75;;;0.85;;
10299;SDS011;5195;48.562;9.192;2023-03-14T06:34:21;1.67;;;0.80;;
10299;SDS011;5195;48.562;9.192;2023-03-14T06:36:48;2.27;;;0.80;;
10299;SDS011;5195;48.562;9.192;2023-03-14T06:39:13;2.87;;;0.80;;
10299;SDS011;5195;48.562;9.192;2023-03-14T06:41:39;1.53;;;0.60;;
10299;SDS011;5195;48.562;9.192;2023-03-14T06:44:04;0.90;;;0.60;;
10299;SDS011;5195;48.562;9.192;2023-03-14T06:46:31;1.40;;;0.93;;
10299;SDS011;5195;48.562;9.192;2023-03-14T06:48:58;0.57;;;0.50;;
10299;SDS011;5195;48.562;9.192;2023-03-14T06:51:23;1.90;;;0.60;;
10299;SDS011;5195;48.562;9.192;2023-03-14T06:53:49;1.50;;;0.70;;
10299;SDS011;5195;48.562;9.192;2023-03-14T06:56:15;0.40;;;0.40;;
10299;SDS011;5195;48.562;9.192;2023-03-14T06:58:41;0.90;;;0.80;;
10299;SDS011;5195;48.562;9.192;2023-03-14T07:01:11;1.27;;;0.75;;
10299;SDS011;5195;48.562;9.192;2023-03-14T07:03:32;1.40;;;0.60;;
10299;SDS011;5195;48.562;9.192;2023-03-14T07:05:57;1.20;;;0.68;;
10299;SDS011;5195;48.562;9.192;2023-03-14T07:08:24;0.82;;;0.50;;
10299;SDS011;5195;48.562;9.192;2023-03-14T07:10:49;1.97;;;0.67;;
10299;SDS011;5195;48.562;9.192;2023-03-14T07:13:17;1.07;;;0.80;;
10299;SDS011;5195;48.562;9.192;2023-03-14T07:15:44;0.80;;;0.40;;
10299;SDS011;5195;48.562;9.192;2023-03-14T07:18:09;1.23;;;0.60;;
10299;SDS011;5195;48.562;9.192;2023-03-14T07:20:35;0.70;;;0.40;;
10299;SDS011;5195;48.562;9.192;2023-03-14T07:23:00;0.90;;;0.50;;
10299;SDS011;5195;48.562;9.192;2023-03-14T07:25:29;1.60;;;0.60;;
10299;SDS011;5195;48.562;9.192;2023-03-14T07:27:56;0.95;;;0.65;;
10299;SDS011;5195;48.562;9.192;2023-03-14T07:30:21;1.27;;;0.55;;
10299;SDS011;5195;48.562;9.192;2023-03-14T07:32:47;0.50;;;0.50;;
10299;SDS011;5195;48.562;9.192;2023-03-14T07:35:12;1.58;;;1.27;;
10299;SDS011;5195;48.562;9.192;2023-03-14T07:37:38;2.15;;;2.05;;
10299;SDS011;5195;48.562;9.192;2023-03-14T07:40:04;0.90;;;0.90;;
10299;SDS011;5195;48.562;9.192;2023-03-14T07:42:30;0.82;;;0.70;;
10299;SDS011;5195;48.562;9.192;2023-03-14T07:44:55;1.03;;;0.60;;
10299;SDS011;5195;48.562;9.192;2023-03-14T07:47:21;0.73;;;0.70;;
10299;SDS011;5195;48.562;9.192;2023-03-14T07:53:12;2.43;;;2.30;;
10299;SDS011;5195;48.562;9.192;2023-03-14T07:55:39;1.87;;;1.30;;
10299;SDS011;5195;48.562;9.192;2023-03-14T07:58:03;4.12;;;3.83;;
10299;SDS011;5195;48.562;9.192;2023-03-14T08:00:28;2.23;;;2.03;;
10299;SDS011;5195;48.562;9.192;2023-03-14T08:02:56;2.53;;;2.33;;
10299;SDS011;5195;48.562;9.192;2023-03-14T08:05:21;1.77;;;1.45;;
10299;SDS011;5195;48.562;9.192;2023-03-14T08:07:47;4.23;;;1.90;;
10299;SDS011;5195;48.562;9.192;2023-03-14T08:10:13;2.28;;;2.08;;
10299;SDS011;5195;48.562;9.192;2023-03-14T08:12:39;3.30;;;2.47;;
10299;SDS011;5195;48.562;9.192;2023-03-14T08:15:05;2.73;;;2.10;;
10299;SDS011;5195;48.562;9.192;2023-03-14T08:17:32;2.10;;;1.80;;
10299;SDS011;5195;48.562;9.192;2023-03-14T08:19:56;2.20;;;1.10;;
10299;SDS011;5195;48.562;9.192;2023-03-14T08:22:22;2.13;;;1.60;;
10299;SDS011;5195;48.562;9.192;2023-03-14T08:24:49;2.10;;;1.00;;
10299;SDS011;5195;48.562;9.192;2023-03-14T08:27:15;1.43;;;1.33;;
10299;SDS011;5195;48.562;9.192;2023-03-14T08:29:41;1.50;;;1.40;;
10299;SDS011;5195;48.562;9.192;2023-03-14T08:32:07;1.58;;;0.60;;
10299;SDS011;5195;48.562;9.192;2023-03-14T08:34:33;1.60;;;0.60;;
10299;SDS011;5195;48.562;9.192;2023-03-14T08:36:58;0.68;;;0.68;;
10299;SDS011;5195;48.562;9.192;2023-03-14T08:39:23;1.20;;;0.50;;
10299;SDS011;5195;48.562;9.192;2023-03-14T08:41:49;1.67;;;0.60;;
10299;SDS011;5195;48.562;9.192;2023-03-14T08:44:15;1.05;;;0.50;;
10299;SDS011;5195;48.562;9.192;2023-03-14T08:46:47;1.27;;;0.50;;
10299;SDS011;5195;48.562;9.192;2023-03-14T08:49:13;0.50;;;0.50;;
10299;SDS011;5195;48.562;9.192;2023-03-14T08:51:39;1.20;;;0.50;;
10299;SDS011;5195;48.562;9.192;2023-03-14T08:54:04;1.17;;;0.50;;
10299;SDS011;5195;48.562;9.192;2023-03-14T08:56:31;1.10;;;0.62;;
10299;SDS011;5195;48.562;9.192;2023-03-14T08:58:57;1.00;;;0.47;;
10299;SDS011;5195;48.562;9.192;2023-03-14T09:01:23;0.73;;;0.40;;
10299;SDS011;5195;48.562;9.192;2023-03-14T09:03:48;0.20;;;0.20;;
10299;SDS011;5195;48.562;9.192;2023-03-14T09:06:14;0.60;;;0.43;;
10299;SDS011;5195;48.562;9.192;2023-03-14T09:08:40;0.23;;;0.23;;
10299;SDS011;5195;48.562;9.192;2023-03-14T09:11:08;1.20;;;0.40;;
10299;SDS011;5195;48.562;9.192;2023-03-14T09:13:33;0.50;;;0.40;;
10299;SDS011;5195;48.562;9.192;2023-03-14T09:15:58;1.07;;;0.53;;
10299;SDS011;5195;48.562;9.192;2023-03-14T09:18:24;1.10;;;0.55;;
10299;SDS011;5195;48.562;9.192;2023-03-14T09:20:49;0.60;;;0.50;;
10299;SDS011;5195;48.562;9.192;2023-03-14T09:23:15;0.60;;;0.40;;
10299;SDS011;5195;48.562;9.192;2023-03-14T09:25:42;1.00;;;0.50;;
10299;SDS011;5195;48.562;9.192;2023-03-14T09:28:07;0.87;;;0.50;;
10299;SDS011;5195;48.562;9.192;2023-03-14T09:30:33;0.40;;;0.40;;
10299;SDS011;5195;48.562;9.192;2023-03-14T09:32:58;0.40;;;0.40;;
10299;SDS011;5195;48.562;9.192;2023-03-14T09:35:24;1.02;;;0.40;;
10299;SDS011;5195;48.562;9.192;2023-03-14T09:37:51;0.43;;;0.33;;
10299;SDS011;5195;48.562;9.192;2023-03-14T09:40:17;1.23;;;0.50;;
10299;SDS011;5195;48.562;9.192;2023-03-14T09:42:42;1.12;;;0.50;;
10299;SDS011;5195;48.562;9.192;2023-03-14T09:45:13;0.53;;;0.30;;
10299;SDS011;5195;48.562;9.192;2023-03-14T09:47:37;0.73;;;0.60;;
10299;SDS011;5195;48.562;9.192;2023-03-14T09:50:05;0.80;;;0.40;;
10299;SDS011;5195;48.562;9.192;2023-03-14T09:52:40;0.50;;;0.33;;
10299;SDS011;5195;48.562;9.192;2023-03-14T09:55:03;0.20;;;0.20;;
10299;SDS011;5195;48.562;9.192;2023-03-14T09:57:27;0.93;;;0.40;;
10299;SDS011;5195;48.562;9.192;2023-03-14T09:59:57;1.00;;;0.40;;
10299;SDS011;5195;48.562;9.192;2023-03-14T10:02:23;1.70;;;0.40;;
10299;SDS011;5195;48.562;9.192;2023-03-14T10:04:48;0.20;;;0.20;;
10299;SDS011;5195;48.562;9.192;2023-03-14T10:07:16;1.00;;;0.43;;
10299;SDS011;5195;48.562;9.192;2023-03-14T10:09:42;0.53;;;0.40;;
10299;SDS011;5195;48.562;9.192;2023-03-14T10:12:07;0.80;;;0.80;;
10299;SDS011;5195;48.562;9.192;2023-03-14T10:14:34;0.40;;;0.20;;
10299;SDS011;5195;48.562;9.192;2023-03-14T10:17:08;0.70;;;0.20;;
10299;SDS011;5195;48.562;9.192;2023-03-14T10:19:30;0.40;;;0.20;;
10299;SDS011;5195;48.562;9.192;2023-03-14T10:21:55;0.90;;;0.40;;
10299;SDS011;5195;48.562;9.192;2023-03-14T10:24:22;0.30;;;0.30;;
10299;SDS011;5195;48.562;9.192;2023-03-14T10:26:48;0.43;;;0.30;;
10299;SDS011;5195;48.562;9.192;2023-03-14T10:29:13;2.83;;;0.40;;
10299;SDS011;5195;48.562;9.192;2023-03-14T10:31:57;0.30;;;0.30;;
10299;SDS011;5195;48.562;9.192;2023-03-14T10:34:25;1.43;;;0.40;;
10299;SDS011;5195;48.562;9.192;2023-03-14T10:36:53;0.50;;;0.50;;
10299;SDS011;5195;48.562;9.192;2023-03-14T10:41:54;0.67;;;0.30;;
10299;SDS011;5195;48.562;9.192;2023-03-14T10:44:20;0.30;;;0.30;;
10299;SDS011;5195;48.562;9.192;2023-03-14T10:46:44;1.20;;;0.40;;
10299;SDS011;5195;48.562;9.192;2023-03-14T10:49:23;0.57;;;0.30;;
10299;SDS011;5195;48.562;9.192;2023-03-14T10:51:35;0.33;;;0.33;;
10299;SDS011;5195;48.562;9.192;2023-03-14T10:56:40;0.30;;;0.30;;
10299;SDS011;5195;48.562;9.192;2023-03-14T10:59:07;1.30;;;0.40;;
10299;SDS011;5195;48.562;9.192;2023-03-14T11:15:02;1.73;;;1.63;;
10299;SDS011;5195;48.562;9.192;2023-03-14T11:17:27;0.50;;;0.50;;
10299;SDS011;5195;48.562;9.192;2023-03-14T11:20:08;0.67;;;0.67;;
10299;SDS011;5195;48.562;9.192;2023-03-14T11:22:41;0.73;;;0.73;;
10299;SDS011;5195;48.562;9.192;2023-03-14T11:28:01;1.23;;;1.23;;
10299;SDS011;5195;48.562;9.192;2023-03-14T11:30:39;3.60;;;3.40;;
10299;SDS011;5195;48.562;9.192;2023-03-14T11:33:18;0.40;;;0.40;;
10299;SDS011;5195;48.562;9.192;2023-03-14T11:36:09;1.17;;;1.13;;
10299;SDS011;5195;48.562;9.192;2023-03-14T11:38:48;1.40;;;1.37;;
10299;SDS011;5195;48.562;9.192;2023-03-14T11:41:20;2.20;;;2.10;;
10299;SDS011;5195;48.562;9.192;2023-03-14T11:43:49;2.20;;;2.10;;
10299;SDS011;5195;48.562;9.192;2023-03-14T11:51:48;1.90;;;1.80;;
10299;SDS011;5195;48.562;9.192;2023-03-14T11:55:04;1.30;;;1.20;;
10299;SDS011;5195;48.562;9.192;2023-03-14T11:57:10;1.60;;;1.50;;
10299;SDS011;5195;48.562;9.192;2023-03-14T12:04:54;2.00;;;1.90;;
10299;SDS011;5195;48.562;9.192;2023-03-14T12:07:29;2.90;;;2.70;;
10299;SDS011;5195;48.562;9.192;2023-03-14T12:09:52;2.63;;;2.53;;
10299;SDS011;5195;48.562;9.192;2023-03-14T12:12:21;2.17;;;2.07;;
10299;SDS011;5195;48.562;9.192;2023-03-14T12:14:44;3.30;;;3.10;;
10299;SDS011;5195;48.562;9.192;2023-03-14T12:19:35;3.50;;;3.30;;
10299;SDS011;5195;48.562;9.192;2023-03-14T12:24:39;1.43;;;1.33;;
10299;SDS011;5195;48.562;9.192;2023-03-14T12:27:05;2.25;;;2.15;;
10299;SDS011;5195;48.562;9.192;2023-03-14T12:29:31;0.90;;;0.90;;
10299;SDS011;5195;48.562;9.192;2023-03-14T12:34:29;0.70;;;0.70;;
10299;SDS011;5195;48.562;9.192;2023-03-14T12:37:12;0.62;;;0.60;;
10299;SDS011;5195;48.562;9.192;2023-03-14T12:42:40;0.40;;;0.40;;
10299;SDS011;5195;48.562;9.192;2023-03-14T12:47:56;0.43;;;0.40;;
10299;SDS011;5195;48.562;9.192;2023-03-14T12:50:29;0.43;;;0.43;;
10299;SDS011;5195;48.562;9.192;2023-03-14T13:01:29;0.40;;;0.40;;
10299;SDS011;5195;48.562;9.192;2023-03-14T13:03:56;0.50;;;0.50;;
10299;SDS011;5195;48.562;9.192;2023-03-14T13:09:34;0.60;;;0.50;;
10299;SDS011;5195;48.562;9.192;2023-03-14T13:12:00;0.50;;;0.50;;
10299;SDS011;5195;48.562;9.192;2023-03-14T13:14:22;0.20;;;0.20;;
10299;SDS011;5195;48.562;9.192;2023-03-14T13:16:47;0.67;;;0.67;;
10299;SDS011;5195;48.562;9.192;2023-03-14T13:19:21;1.50;;;0.70;;
10299;SDS011;5195;48.562;9.192;2023-03-14T13:21:49;1.50;;;0.80;;
10299;SDS011;5195;48.562;9.192;2023-03-14T13:24:21;1.40;;;0.70;;
10299;SDS011;5195;48.562;9.192;2023-03-14T13:26:51;1.53;;;0.60;;
10299;SDS011;5195;48.562;9.192;2023-03-14T13:31:46;1.27;;;0.50;;
10299;SDS011;5195;48.562;9.192;2023-03-14T13:34:11;0.73;;;0.60;;
10299;SDS011;5195;48.562;9.192;2023-03-14T13:36:37;0.70;;;0.50;;
10299;SDS011;5195;48.562;9.192;2023-03-14T13:39:02;0.60;;;0.60;;
10299;SDS011;5195;48.562;9.192;2023-03-14T13:41:29;0.50;;;0.40;;
10299;SDS011;5195;48.562;9.192;2023-03-14T13:43:58;0.47;;;0.47;;
10299;SDS011;5195;48.562;9.192;2023-03-14T13:46:28;1.13;;;0.57;;
10299;SDS011;5195;48.562;9.192;2023-03-14T13:49:02;0.50;;;0.50;;
10299;SDS011;5195;48.562;9.192;2023-03-14T13:51:26;0.90;;;0.70;;
10299;SDS011;5195;48.562;9.192;2023-03-14T13:53:52;1.43;;;0.60;;
10299;SDS011;5195;48.562;9.192;2023-03-14T13:56:18;1.00;;;0.65;;
10299;SDS011;5195;48.562;9.192;2023-03-14T13:58:43;1.27;;;0.70;;
10299;SDS011;5195;48.562;9.192;2023-03-14T14:03:45;1.83;;;0.67;;
10299;SDS011;5195;48.562;9.192;2023-03-14T14:08:58;0.40;;;0.40;;
10299;SDS011;5195;48.562;9.192;2023-03-14T14:14:16;1.10;;;0.40;;
10299;SDS011;5195;48.562;9.192;2023-03-14T14:16:42;1.10;;;0.70;;
10299;SDS011;5195;48.562;9.192;2023-03-14T14:19:07;0.77;;;0.43;;
10299;SDS011;5195;48.562;9.192;2023-03-14T14:21:33;0.57;;;0.57;;
10299;SDS011;5195;48.562;9.192;2023-03-14T14:23:59;0.77;;;0.55;;
10299;SDS011;5195;48.562;9.192;2023-03-14T14:26:25;1.53;;;0.70;;
10299;SDS011;5195;48.562;9.192;2023-03-14T14:28:58;1.83;;;0.57;;
10299;SDS011;5195;48.562;9.192;2023-03-14T14:31:18;1.50;;;0.70;;
10299;SDS011;5195;48.562;9.192;2023-03-14T14:33:45;1.03;;;0.67;;
10299;SDS011;5195;48.562;9.192;2023-03-14T14:36:13;1.23;;;0.80;;
10299;SDS011;5195;48.562;9.192;2023-03-14T14:38:33;1.27;;;0.40;;
10299;SDS011;5195;48.562;9.192;2023-03-14T14:41:00;1.93;;;0.77;;
10299;SDS011;5195;48.562;9.192;2023-03-14T14:43:26;0.67;;;0.63;;
10299;SDS011;5195;48.562;9.192;2023-03-14T14:45:52;3.00;;;0.80;;
10299;SDS011;5195;48.562;9.192;2023-03-14T14:48:19;2.87;;;0.80;;
10299;SDS011;5195;48.562;9.192;2023-03-14T14:50:58;1.33;;;0.70;;
10299;SDS011;5195;48.562;9.192;2023-03-14T14:53:30;2.10;;;0.60;;
10299;SDS011;5195;48.562;9.192;2023-03-14T14:55:55;1.23;;;0.90;;
10299;SDS011;5195;48.562;9.192;2023-03-14T14:58:24;1.90;;;0.70;;
10299;SDS011;5195;48.562;9.192;2023-03-14T15:01:08;0.60;;;0.60;;
10299;SDS011;5195;48.562;9.192;2023-03-14T15:03:17;0.70;;;0.70;;
10299;SDS011;5195;48.562;9.192;2023-03-14T15:05:42;1.03;;;0.70;;
10299;SDS011;5195;48.562;9.192;2023-03-14T15:08:11;1.12;;;1.00;;
10299;SDS011;5195;48.562;9.192;2023-03-14T15:10:37;2.00;;;0.73;;
10299;SDS011;5195;48.562;9.192;2023-03-14T15:13:02;0.95;;;0.60;;
10299;SDS011;5195;48.562;9.192;2023-03-14T15:15:28;1.50;;;0.60;;
10299;SDS011;5195;48.562;9.192;2023-03-14T15:17:54;2.63;;;0.70;;
10299;SDS011;5195;48.562;9.192;2023-03-14T15:20:19;0.73;;;0.67;;
10299;SDS011;5195;48.562;9.192;2023-03-14T15:22:45;1.27;;;0.63;;
10299;SDS011;5195;48.562;9.192;2023-03-14T15:25:11;2.17;;;0.90;;
10299;SDS011;5195;48.562;9.192;2023-03-14T15:27:37;1.60;;;0.82;;
10299;SDS011;5195;48.562;9.192;2023-03-14T15:30:02;1.40;;;0.90;;
10299;SDS011;5195;48.562;9.192;2023-03-14T15:32:28;0.97;;;0.90;;
10299;SDS011;5195;48.562;9.192;2023-03-14T15:34:55;1.83;;;0.50;;
10299;SDS011;5195;48.562;9.192;2023-03-14T15:37:20;1.08;;;0.85;;
10299;SDS011;5195;48.562;9.192;2023-03-14T15:39:46;1.93;;;0.90;;
10299;SDS011;5195;48.562;9.192;2023-03-14T15:42:11;1.03;;;0.80;;
10299;SDS011;5195;48.562;9.192;2023-03-14T15:44:37;1.67;;;0.70;;
10299;SDS011;5195;48.562;9.192;2023-03-14T15:47:04;1.00;;;0.80;;
10299;SDS011;5195;48.562;9.192;2023-03-14T15:49:30;1.70;;;0.80;;
10299;SDS011;5195;48.562;9.192;2023-03-14T15:51:55;0.47;;;0.33;;
10299;SDS011;5195;48.562;9.192;2023-03-14T15:54:21;1.05;;;0.70;;
10299;SDS011;5195;48.562;9.192;2023-03-14T15:56:46;1.87;;;0.80;;
10299;SDS011;5195;48.562;9.192;2023-03-14T15:59:12;1.30;;;0.75;;
10299;SDS011;5195;48.562;9.192;2023-03-14T16:01:38;3.50;;;1.03;;
10299;SDS011;5195;48.562;9.192;2023-03-14T16:04:03;1.07;;;0.87;;
10299;SDS011;5195;48.562;9.192;2023-03-14T16:06:29;1.30;;;0.90;;
10299;SDS011;5195;48.562;9.192;2023-03-14T16:08:54;1.70;;;0.80;;
10299;SDS011;5195;48.562;9.192;2023-03-14T16:11:20;2.00;;;1.00;;
10299;SDS011;5195;48.562;9.192;2023-03-14T16:13:45;1.40;;;0.90;;
10299;SDS011;5195;48.562;9.192;2023-03-14T16:16:11;1.60;;;0.90;;